Time;durP1;ratioP1;P1;durP2;ratioP2;P2;SDS_P1;SDS_P2;PMS_P1;PMS_P2;Temp;Humidity;BMP_temperature;BMP_pressure;BME280_temperature;BME280_humidity;BME280_pressure;Samples;Min_cycle;Max_cycle;Signal;HPM_P1;HPM_P2
2021/12/23 00:01:24;;;;;;;;;;;;;;;;;;5055647;28;20289;-81
2021/12/23 00:03:49;;;;;;;;;;;;;;;;;;5037536;28;20002;-82
2021/12/23 00:06:14;;;;;;;;;;;;;;;;;;5055039;28;19980;-82
2021/12/23 00:08:40;;;;;;;;;;;;;;;;;;5055096;28;19931;-84
2021/12/23 00:11:05;;;;;;;;;;;;;;;;;;5054859;28;19917;-85
2021/12/23 00:13:34;;;;;;;;;;;;;;;;;;5054942;28;19928;-82
2021/12/23 00:23:47;;;;;;;;;;;;;;;;;;5054812;28;19919;-82
2021/12/23 00:26:12;;;;;;;;;;;;;;;;;;5054922;28;20011;-83
2021/12/23 00:28:38;;;;;;;;;;;;;;;;;;5054674;28;19916;-86
2021/12/23 00:31:04;;;;;;;;;;;;;;;;;;5054550;28;20487;-84
2021/12/23 00:33:30;;;;;;;;;;;;;;;;;;5054683;28;19917;-84
2021/12/23 00:35:56;;;;;;;;;;;;;;;;;;5054691;28;19921;-82
2021/12/23 00:38:29;;;;;;;;;;;;;;;;;;5054576;28;19921;-81
2021/12/23 00:40:55;;;;;;;;;;;;;;;;;;5054387;28;19918;-80
2021/12/23 00:43:21;;;;;;;;;;;;;;;;;;5054400;28;20547;-82
2021/12/23 00:45:47;;;;;;;;;;;;;;;;;;5054396;28;19917;-84
2021/12/23 00:48:13;;;;;;;;;;;;;;;;;;5054343;28;19956;-84
2021/12/23 00:50:39;;;;;;;;;;;;;;;;;;5054268;28;19917;-84
2021/12/23 00:53:07;;;;;;;;;;;;;;;;;;5054182;28;20432;-81
2021/12/23 00:55:33;;;;;;;;;;;;;;;;;;5054244;28;19924;-84
2021/12/23 00:57:59;;;;;;;;;;;;;;;;;;5054413;28;19917;-81
2021/12/23 01:00:25;;;;;;;;;;;;;;;;;;5054198;28;19916;-81
2021/12/23 01:02:51;;;;;;;;;;;;;;;;;;5036165;28;19921;-81
2021/12/23 01:05:17;;;;;;;;;;;;;;;;;;5054069;28;19935;-89
2021/12/23 01:07:43;;;;;;;;;;;;;;;;;;5054328;28;19920;-84
2021/12/23 01:10:09;;;;;;;;;;;;;;;;;;5054251;28;19963;-83
2021/12/23 01:12:43;;;;;;;;;;;;;;;;;;5053964;28;19917;-82
2021/12/23 01:18:00;;;;;;;;;;;;;;;;;;5053832;28;19916;-84
2021/12/23 01:20:29;;;;;;;;;;;;;;;;;;5053040;28;20289;-82
2021/12/23 01:22:55;;;;;;;;;;;;;;;;;;5053761;28;19917;-84
2021/12/23 01:25:21;;;;;;;;;;;;;;;;;;5053915;28;19927;-82
2021/12/23 01:27:47;;;;;;;;;;;;;;;;;;5053658;28;19942;-83
2021/12/23 01:30:13;;;;;;;;;;;;;;;;;;5035853;28;19917;-82
2021/12/23 01:32:39;;;;;;;;;;;;;;;;;;5053876;28;19917;-85
2021/12/23 01:35:05;;;;;;;;;;;;;;;;;;5053630;28;19971;-83
2021/12/23 01:37:30;;;;;;;;;;;;;;;;;;5035729;28;19923;-84
2021/12/23 01:39:55;;;;;;;;;;;;;;;;;;5053622;28;19959;-85
2021/12/23 01:42:21;;;;;;;;;;;;;;;;;;5035768;28;19983;-85
2021/12/23 01:44:46;;;;;;;;;;;;;;;;;;5035668;28;19995;-84
2021/12/23 01:47:12;;;;;;;;;;;;;;;;;;5053620;28;20333;-85
2021/12/23 01:49:37;;;;;;;;;;;;;;;;;;5053669;28;20364;-86
2021/12/23 01:52:03;;;;;;;;;;;;;;;;;;5053516;28;19924;-88
2021/12/23 01:54:28;;;;;;;;;;;;;;;;;;5053565;28;20004;-84
2021/12/23 01:56:54;;;;;;;;;;;;;;;;;;5053297;28;19917;-85
2021/12/23 01:59:20;;;;;;;;;;;;;;;;;;5053444;28;19923;-84
2021/12/23 02:01:46;;;;;;;;;;;;;;;;;;5053677;28;20020;-83
2021/12/23 02:04:11;;;;;;;;;;;;;;;;;;5057371;28;19921;-86
2021/12/23 02:06:36;;;;;;;;;;;;;;;;;;5057253;28;19920;-84
2021/12/23 02:09:03;;;;;;;;;;;;;;;;;;5057203;28;19975;-83
2021/12/23 02:11:29;;;;;;;;;;;;;;;;;;5057169;28;19916;-84
2021/12/23 02:13:54;;;;;;;;;;;;;;;;;;5057176;28;19970;-81
2021/12/23 02:16:20;;;;;;;;;;;;;;;;;;5056990;28;19916;-88
2021/12/23 02:18:45;;;;;;;;;;;;;;;;;;5039173;28;19917;-84
2021/12/23 02:21:11;;;;;;;;;;;;;;;;;;5057088;28;20442;-83
2021/12/23 02:23:38;;;;;;;;;;;;;;;;;;5057013;28;19917;-80
2021/12/23 02:26:03;;;;;;;;;;;;;;;;;;5056956;28;19917;-79
2021/12/23 02:28:29;;;;;;;;;;;;;;;;;;5056959;28;19925;-80
2021/12/23 02:30:54;;;;;;;;;;;;;;;;;;5056629;28;19924;-80
2021/12/23 02:33:21;;;;;;;;;;;;;;;;;;5056754;28;19921;-80
2021/12/23 02:35:47;;;;;;;;;;;;;;;;;;5038859;28;19921;-82
2021/12/23 02:38:12;;;;;;;;;;;;;;;;;;5056819;28;20284;-79
2021/12/23 02:40:40;;;;;;;;;;;;;;;;;;5056614;28;19917;-80
2021/12/23 02:43:14;;;;;;;;;;;;;;;;;;5056558;28;20331;-79
2021/12/23 02:45:39;;;;;;;;;;;;;;;;;;5056537;28;19916;-80
2021/12/23 02:48:11;;;;;;;;;;;;;;;;;;5056544;28;20440;-80
2021/12/23 02:50:36;;;;;;;;;;;;;;;;;;5056504;28;19921;-81
2021/12/23 02:53:02;;;;;;;;;;;;;;;;;;5056340;28;20334;-79
2021/12/23 02:55:27;;;;;;;;;;;;;;;;;;5056397;28;20382;-79
2021/12/23 02:57:53;;;;;;;;;;;;;;;;;;5056372;28;19917;-87
2021/12/23 03:00:19;;;;;;;;;;;;;;;;;;5056363;28;19923;-79
2021/12/23 03:02:44;;;;;;;;;;;;;;;;;;5056218;28;19923;-80
2021/12/23 03:05:10;;;;;;;;;;;;;;;;;;5056019;28;19917;-81
2021/12/23 03:07:35;;;;;;;;;;;;;;;;;;5056489;28;19917;-80
2021/12/23 03:10:02;;;;;;;;;;;;;;;;;;5038249;28;20331;-79
2021/12/23 03:12:28;;;;;;;;;;;;;;;;;;5056059;28;19962;-79
2021/12/23 03:14:53;;;;;;;;;;;;;;;;;;5036844;28;19925;-80
2021/12/23 03:17:19;;;;;;;;;;;;;;;;;;5055958;28;19962;-81
2021/12/23 03:19:44;;;;;;;;;;;;;;;;;;5071362;28;19970;-82
2021/12/23 03:22:09;;;;;;;;;;;;;;;;;;5055899;28;19921;-80
2021/12/23 03:24:35;;;;;;;;;;;;;;;;;;5056030;28;20335;-79
2021/12/23 03:27:00;;;;;;;;;;;;;;;;;;5061924;28;19921;-79
2021/12/23 03:29:26;;;;;;;;;;;;;;;;;;5062240;28;19975;-79
2021/12/23 03:31:51;;;;;;;;;;;;;;;;;;5061275;28;19921;-79
2021/12/23 03:34:17;;;;;;;;;;;;;;;;;;5070606;28;19983;-80
2021/12/23 03:36:42;;;;;;;;;;;;;;;;;;5055772;28;19971;-80
2021/12/23 03:39:08;;;;;;;;;;;;;;;;;;5055792;28;19921;-83
2021/12/23 03:41:33;;;;;;;;;;;;;;;;;;5055445;28;20292;-82
2021/12/23 03:43:59;;;;;;;;;;;;;;;;;;5055572;28;20015;-80
2021/12/23 03:46:24;;;;;;;;;;;;;;;;;;5055339;28;19924;-80
2021/12/23 03:48:50;;;;;;;;;;;;;;;;;;5055413;28;19917;-79
2021/12/23 03:51:16;;;;;;;;;;;;;;;;;;5055336;28;20464;-82
2021/12/23 03:53:41;;;;;;;;;;;;;;;;;;5055260;28;20308;-79
2021/12/23 03:56:06;;;;;;;;;;;;;;;;;;5055250;28;19916;-80
2021/12/23 03:58:32;;;;;;;;;;;;;;;;;;5055347;28;19970;-82
2021/12/23 04:00:57;;;;;;;;;;;;;;;;;;5054931;28;19961;-89
2021/12/23 04:03:23;;;;;;;;;;;;;;;;;;5055066;28;19917;-80
2021/12/23 04:05:48;;;;;;;;;;;;;;;;;;5054943;28;19920;-82
2021/12/23 04:08:14;;;;;;;;;;;;;;;;;;5070440;28;20011;-79
2021/12/23 04:10:39;;;;;;;;;;;;;;;;;;5054962;28;19924;-79
2021/12/23 04:13:05;;;;;;;;;;;;;;;;;;5054728;28;20277;-79
2021/12/23 04:15:30;;;;;;;;;;;;;;;;;;5054898;28;19917;-79
2021/12/23 04:17:56;;;;;;;;;;;;;;;;;;5054871;28;19924;-86
2021/12/23 04:20:23;;;;;;;;;;;;;;;;;;5054782;28;19921;-79
2021/12/23 04:22:53;;;;;;;;;;;;;;;;;;5054593;28;19952;-80
2021/12/23 04:25:19;;;;;;;;;;;;;;;;;;5054402;28;19944;-79
2021/12/23 04:27:46;;;;;;;;;;;;;;;;;;5054622;28;19916;-78
2021/12/23 04:30:12;;;;;;;;;;;;;;;;;;5054552;28;19921;-80
2021/12/23 04:32:38;;;;;;;;;;;;;;;;;;5054735;28;19923;-82
2021/12/23 04:35:04;;;;;;;;;;;;;;;;;;5054407;28;20469;-83
2021/12/23 04:37:29;;;;;;;;;;;;;;;;;;5054421;28;20391;-80
2021/12/23 04:39:54;;;;;;;;;;;;;;;;;;5054285;28;19928;-79
2021/12/23 04:42:20;;;;;;;;;;;;;;;;;;5054385;28;20428;-78
2021/12/23 04:44:45;;;;;;;;;;;;;;;;;;5054222;28;19962;-79
2021/12/23 04:47:11;;;;;;;;;;;;;;;;;;5054215;28;20365;-84
2021/12/23 04:49:36;;;;;;;;;;;;;;;;;;5054413;28;20019;-79
2021/12/23 04:52:02;;;;;;;;;;;;;;;;;;5036359;28;19975;-79
2021/12/23 04:54:27;;;;;;;;;;;;;;;;;;5054262;28;19924;-80
2021/12/23 04:56:53;;;;;;;;;;;;;;;;;;5054088;28;19962;-78
2021/12/23 04:59:20;;;;;;;;;;;;;;;;;;5054406;28;20357;-79
2021/12/23 05:01:45;;;;;;;;;;;;;;;;;;5036214;28;19920;-82
2021/12/23 05:04:10;;;;;;;;;;;;;;;;;;5054050;28;20403;-84
2021/12/23 05:06:36;;;;;;;;;;;;;;;;;;5053839;28;19928;-78
2021/12/23 05:09:02;;;;;;;;;;;;;;;;;;5036022;28;20003;-79
2021/12/23 05:11:28;;;;;;;;;;;;;;;;;;5053875;28;19917;-80
2021/12/23 05:13:53;;;;;;;;;;;;;;;;;;5069360;28;19939;-81
2021/12/23 05:16:19;;;;;;;;;;;;;;;;;;5069239;28;19927;-84
2021/12/23 05:18:45;;;;;;;;;;;;;;;;;;5053813;28;19979;-79
2021/12/23 05:21:10;;;;;;;;;;;;;;;;;;5054153;28;19960;-84
2021/12/23 05:23:36;;;;;;;;;;;;;;;;;;5035891;28;20365;-80
2021/12/23 05:26:05;;;;;;;;;;;;;;;;;;5053943;28;19924;-82
2021/12/23 05:28:31;;;;;;;;;;;;;;;;;;5035833;28;19917;-86
2021/12/23 05:30:56;;;;;;;;;;;;;;;;;;5035878;28;20440;-86
2021/12/23 05:33:22;;;;;;;;;;;;;;;;;;5054252;28;19923;-81
2021/12/23 05:35:47;;;;;;;;;;;;;;;;;;5053692;28;19959;-85
2021/12/23 05:38:12;;;;;;;;;;;;;;;;;;5035269;28;19971;-84
2021/12/23 05:40:38;;;;;;;;;;;;;;;;;;5053762;28;19923;-79
2021/12/23 05:43:03;;;;;;;;;;;;;;;;;;5053628;28;20424;-81
2021/12/23 05:45:29;;;;;;;;;;;;;;;;;;5053909;28;19917;-82
2021/12/23 05:47:54;;;;;;;;;;;;;;;;;;5035827;28;19939;-84
2021/12/23 05:50:20;;;;;;;;;;;;;;;;;;5053646;28;19924;-81
2021/12/23 05:52:46;;;;;;;;;;;;;;;;;;5053435;28;19917;-79
2021/12/23 05:55:12;;;;;;;;;;;;;;;;;;5053525;28;19917;-80
2021/12/23 05:57:38;;;;;;;;;;;;;;;;;;5035658;28;19919;-82
2021/12/23 06:00:06;;;;;;;;;;;;;;;;;;5053814;28;19924;-85
2021/12/23 06:02:31;;;;;;;;;;;;;;;;;;5035625;28;19920;-87
2021/12/23 06:04:56;;;;;;;;;;;;;;;;;;5053332;28;19999;-86
2021/12/23 06:07:22;;;;;;;;;;;;;;;;;;5053652;28;19971;-87
2021/12/23 06:09:47;;;;;;;;;;;;;;;;;;5053471;28;19917;-87
2021/12/23 06:12:13;;;;;;;;;;;;;;;;;;5053582;28;19924;-91
2021/12/23 06:14:38;;;;;;;;;;;;;;;;;;5053478;28;19917;-82
2021/12/23 06:17:04;;;;;;;;;;;;;;;;;;5053290;28;20003;-81
2021/12/23 06:19:29;;;;;;;;;;;;;;;;;;5053464;28;19918;-87
2021/12/23 06:21:55;;;;;;;;;;;;;;;;;;5053526;28;19924;-85
2021/12/23 06:24:20;;;;;;;;;;;;;;;;;;5035355;28;20016;-86
2021/12/23 06:26:46;;;;;;;;;;;;;;;;;;5053225;28;19956;-91
2021/12/23 06:29:11;;;;;;;;;;;;;;;;;;5053434;28;20329;-92
2021/12/23 06:31:37;;;;;;;;;;;;;;;;;;5053336;28;19962;-93
2021/12/23 06:34:02;;;;;;;;;;;;;;;;;;5053263;28;19938;-88
2021/12/23 06:36:28;;;;;;;;;;;;;;;;;;5053238;28;19917;-89
2021/12/23 06:38:54;;;;;;;;;;;;;;;;;;5053234;28;19928;-93
2021/12/23 06:41:19;;;;;;;;;;;;;;;;;;5053609;28;19917;-89
2021/12/23 06:43:45;;;;;;;;;;;;;;;;;;5053037;28;20012;-79
2021/12/23 06:46:11;;;;;;;;;;;;;;;;;;5053112;28;20331;-78
2021/12/23 06:48:36;;;;;;;;;;;;;;;;;;5054455;28;20331;-77
2021/12/23 06:51:01;;;;;;;;;;;;;;;;;;5059993;28;20384;-82
2021/12/23 06:53:27;;;;;;;;;;;;;;;;;;5058466;28;19916;-82
2021/12/23 06:55:54;;;;;;;;;;;;;;;;;;5076587;28;19962;-82
2021/12/23 06:58:20;;;;;;;;;;;;;;;;;;5076380;28;20388;-88
2021/12/23 07:00:45;;;;;;;;;;;;;;;;;;5076214;28;19938;-86
2021/12/23 07:03:11;;;;;;;;;;;;;;;;;;5076274;28;19928;-84
2021/12/23 07:05:36;;;;;;;;;;;;;;;;;;5076034;28;20455;-82
2021/12/23 07:08:11;;;;;;;;;;;;;;;;;;5076170;28;19920;-86
2021/12/23 07:10:37;;;;;;;;;;;;;;;;;;5076357;28;19916;-75
2021/12/23 07:13:03;;;;;;;;;;;;;;;;;;5075907;28;19920;-79
2021/12/23 07:15:29;;;;;;;;;;;;;;;;;;5076050;28;19923;-88
2021/12/23 07:17:55;;;;;;;;;;;;;;;;;;5078408;28;20329;-84
2021/12/23 07:20:21;;;;;;;;;;;;;;;;;;5076076;28;19916;-81
2021/12/23 07:22:47;;;;;;;;;;;;;;;;;;5057899;28;20019;-88
2021/12/23 07:25:13;;;;;;;;;;;;;;;;;;5075822;28;20360;-87
2021/12/23 07:27:39;;;;;;;;;;;;;;;;;;5057971;28;20296;-79
2021/12/23 07:30:05;;;;;;;;;;;;;;;;;;5059127;28;19993;-90
2021/12/23 07:32:31;;;;;;;;;;;;;;;;;;5076733;28;19916;-93
2021/12/23 07:34:56;;;;;;;;;;;;;;;;;;5082596;28;19931;-78
2021/12/23 07:37:22;;;;;;;;;;;;;;;;;;5075527;28;20284;-78
2021/12/23 07:39:48;;;;;;;;;;;;;;;;;;5075552;28;19917;-76
2021/12/23 07:42:15;;;;;;;;;;;;;;;;;;5075522;28;19916;-80
2021/12/23 07:44:44;;;;;;;;;;;;;;;;;;5075468;28;19923;-77
2021/12/23 07:47:10;;;;;;;;;;;;;;;;;;5075400;28;19917;-83
2021/12/23 07:49:35;;;;;;;;;;;;;;;;;;5075346;28;19917;-80
2021/12/23 07:52:01;;;;;;;;;;;;;;;;;;5075386;28;19921;-81
2021/12/23 07:54:26;;;;;;;;;;;;;;;;;;5075363;28;19924;-82
2021/12/23 07:56:51;;;;;;;;;;;;;;;;;;5075162;28;19960;-82
2021/12/23 07:59:17;;;;;;;;;;;;;;;;;;5075015;28;19940;-77
2021/12/23 08:01:42;;;;;;;;;;;;;;;;;;5074711;28;20265;-82
2021/12/23 08:04:08;;;;;;;;;;;;;;;;;;5074859;28;20284;-84
2021/12/23 08:06:33;;;;;;;;;;;;;;;;;;5057110;28;19966;-89
2021/12/23 08:08:59;;;;;;;;;;;;;;;;;;5058878;28;19917;-83
2021/12/23 08:11:24;;;;;;;;;;;;;;;;;;5075080;28;19963;-86
2021/12/23 08:13:50;;;;;;;;;;;;;;;;;;5057030;28;19917;-82
2021/12/23 08:16:15;;;;;;;;;;;;;;;;;;5056896;28;19924;-82
2021/12/23 08:18:41;;;;;;;;;;;;;;;;;;5074929;28;19921;-80
2021/12/23 08:21:06;;;;;;;;;;;;;;;;;;5074793;28;19920;-83
2021/12/23 08:23:32;;;;;;;;;;;;;;;;;;5056915;28;19916;-84
2021/12/23 08:26:02;;;;;;;;;;;;;;;;;;5074667;28;20368;-83
2021/12/23 08:28:28;;;;;;;;;;;;;;;;;;5056659;28;19916;-80
2021/12/23 08:30:55;;;;;;;;;;;;;;;;;;5073756;28;20190;-83
2021/12/23 08:33:21;;;;;;;;;;;;;;;;;;5056505;28;19926;-80
2021/12/23 08:35:46;;;;;;;;;;;;;;;;;;5074507;28;19917;-81
2021/12/23 08:38:12;;;;;;;;;;;;;;;;;;5074427;28;19920;-82
2021/12/23 08:40:37;;;;;;;;;;;;;;;;;;5056383;28;19924;-81
2021/12/23 08:43:03;;;;;;;;;;;;;;;;;;5056346;28;19920;-81
2021/12/23 08:45:30;;;;;;;;;;;;;;;;;;5056576;28;19916;-82
2021/12/23 08:47:56;;;;;;;;;;;;;;;;;;5074609;28;20395;-78
2021/12/23 08:50:22;;;;;;;;;;;;;;;;;;5075376;28;19947;-83
2021/12/23 08:52:48;;;;;;;;;;;;;;;;;;5074133;28;19916;-79
2021/12/23 08:55:14;;;;;;;;;;;;;;;;;;5074203;28;19966;-77
2021/12/23 08:57:40;;;;;;;;;;;;;;;;;;5074061;28;19950;-76
2021/12/23 09:00:08;;;;;;;;;;;;;;;;;;5074051;28;19940;-77
2021/12/23 09:02:33;;;;;;;;;;;;;;;;;;5074042;28;20257;-77
2021/12/23 09:04:59;;;;;;;;;;;;;;;;;;5073753;28;19938;-76
2021/12/23 09:07:24;;;;;;;;;;;;;;;;;;5073935;28;19944;-77
2021/12/23 09:09:51;;;;;;;;;;;;;;;;;;5073844;28;19921;-78
2021/12/23 09:12:17;;;;;;;;;;;;;;;;;;5054995;28;19916;-77
2021/12/23 09:14:42;;;;;;;;;;;;;;;;;;5055853;28;20292;-80
2021/12/23 09:17:08;;;;;;;;;;;;;;;;;;5073766;28;19916;-77
2021/12/23 09:19:33;;;;;;;;;;;;;;;;;;5055861;28;19938;-77
2021/12/23 09:21:59;;;;;;;;;;;;;;;;;;5073806;28;20011;-78
2021/12/23 09:24:26;;;;;;;;;;;;;;;;;;5055787;28;19917;-77
2021/12/23 09:26:59;;;;;;;;;;;;;;;;;;5073650;28;19920;-77
2021/12/23 09:34:53;;;;;;;;;;;;;;;;;;5073946;28;19939;-79
2021/12/23 09:37:19;;;;;;;;;;;;;;;;;;5073551;28;20288;-83
2021/12/23 09:39:52;;;;;;;;;;;;;;;;;;5073680;28;19917;-76
2021/12/23 09:42:18;;;;;;;;;;;;;;;;;;5055576;28;19912;-76
2021/12/23 09:44:44;;;;;;;;;;;;;;;;;;5055568;28;20368;-76
2021/12/23 09:47:10;;;;;;;;;;;;;;;;;;5073524;28;19938;-81
2021/12/23 09:49:35;;;;;;;;;;;;;;;;;;5055511;28;20024;-77
2021/12/23 09:52:07;;;;;;;;;;;;;;;;;;5073438;28;20368;-77
2021/12/23 09:54:33;;;;;;;;;;;;;;;;;;5073507;28;19921;-82
2021/12/23 09:56:58;;;;;;;;;;;;;;;;;;5073427;28;19952;-76
2021/12/23 09:59:27;;;;;;;;;;;;;;;;;;5073432;28;19956;-77
2021/12/23 10:01:53;;;;;;;;;;;;;;;;;;5073482;28;19916;-83
2021/12/23 10:04:18;;;;;;;;;;;;;;;;;;5055478;28;19970;-77
2021/12/23 10:06:44;;;;;;;;;;;;;;;;;;5073235;28;20440;-83
2021/12/23 10:09:10;;;;;;;;;;;;;;;;;;5073291;28;20327;-79
2021/12/23 10:12:12;;;;;;;;;;;;;;;;;;5055252;28;20302;-82
2021/12/23 10:31:20;;;;;;;;;;;;;;;;;;5077073;28;19971;-80
2021/12/23 10:37:04;;;;;;;;;;;;;;;;;;5059194;28;19986;-78
2021/12/23 10:39:25;;;;;;;;;;;;;;;;;;5076737;28;19924;-79
2021/12/23 10:41:50;;;;;;;;;;;;;;;;;;5058665;28;19917;-78
2021/12/23 10:44:27;;;;;;;;;;;;;;;;;;5076673;28;19923;-81
2021/12/23 10:46:52;;;;;;;;;;;;;;;;;;5076582;28;19943;-76
2021/12/23 10:51:58;;;;;;;;;;;;;;;;;;5059720;28;19917;-78
2021/12/23 10:58:01;;;;;;;;;;;;;;;;;;5058469;28;19962;-79
2021/12/23 11:00:21;;;;;;;;;;;;;;;;;;5056883;28;20010;-78
2021/12/23 11:03:08;;;;;;;;;;;;;;;;;;5038259;28;20332;-78
2021/12/23 11:05:39;;;;;;;;;;;;;;;;;;5055911;28;20054;-77
2021/12/23 11:38:20;;;;;;;;;;;;;;;;;;5075827;28;19916;-81
2021/12/23 11:45:39;;;;;;;;;;;;;;;;;;5076331;28;19917;-81
2021/12/23 11:48:08;;;;;;;;;;;;;;;;;;5058265;28;19917;-77
2021/12/23 11:50:42;;;;;;;;;;;;;;;;;;5075573;28;19916;-83
2021/12/23 11:53:08;;;;;;;;;;;;;;;;;;5055164;28;20403;-81
2021/12/23 11:55:34;;;;;;;;;;;;;;;;;;5065006;28;19917;-78
2021/12/23 11:58:00;;;;;;;;;;;;;;;;;;5056401;28;19916;-79
2021/12/23 12:00:41;;;;;;;;;;;;;;;;;;5074448;28;19943;-83
2021/12/23 12:03:08;;;;;;;;;;;;;;;;;;5056297;28;19920;-81
2021/12/23 12:05:34;;;;;;;;;;;;;;;;;;5056280;28;20289;-77
2021/12/23 12:08:06;;;;;;;;;;;;;;;;;;5073977;28;19917;-78
2021/12/23 12:10:33;;;;;;;;;;;;;;;;;;5069668;28;19924;-79
2021/12/23 12:13:02;;;;;;;;;;;;;;;;;;5061907;28;20376;-80
2021/12/23 12:15:34;;;;;;;;;;;;;;;;;;5056350;28;20341;-82
2021/12/23 12:18:01;;;;;;;;;;;;;;;;;;5074783;28;19966;-79
2021/12/23 12:20:43;;;;;;;;;;;;;;;;;;5056819;28;19916;-78
2021/12/23 12:23:11;;;;;;;;;;;;;;;;;;5074556;28;19956;-77
2021/12/23 12:25:47;;;;;;;;;;;;;;;;;;5074605;28;20383;-77
2021/12/23 12:28:15;;;;;;;;;;;;;;;;;;5074788;28;19912;-82
2021/12/23 12:30:50;;;;;;;;;;;;;;;;;;5074764;28;19916;-80
2021/12/23 12:33:18;;;;;;;;;;;;;;;;;;5074340;28;19969;-77
2021/12/23 12:35:48;;;;;;;;;;;;;;;;;;5074489;28;19916;-85
2021/12/23 12:38:21;;;;;;;;;;;;;;;;;;5074806;28;19912;-81
2021/12/23 12:40:56;;;;;;;;;;;;;;;;;;5056847;28;19916;-82
2021/12/23 12:43:31;;;;;;;;;;;;;;;;;;5074921;28;19917;-84
2021/12/23 12:45:56;;;;;;;;;;;;;;;;;;5075091;28;19956;-81
2021/12/23 12:48:22;;;;;;;;;;;;;;;;;;5074210;28;20351;-81
2021/12/23 12:50:51;;;;;;;;;;;;;;;;;;5074087;28;19923;-77
2021/12/23 12:53:19;;;;;;;;;;;;;;;;;;5073874;28;19917;-77
2021/12/23 12:55:49;;;;;;;;;;;;;;;;;;5071055;28;19916;-80
2021/12/23 12:58:14;;;;;;;;;;;;;;;;;;5036226;28;19917;-83
2021/12/23 13:00:43;;;;;;;;;;;;;;;;;;5036563;28;19916;-80
2021/12/23 13:03:14;;;;;;;;;;;;;;;;;;5036230;28;20003;-78
2021/12/23 13:05:39;;;;;;;;;;;;;;;;;;5035926;28;19971;-78
2021/12/23 13:08:28;;;;;;;;;;;;;;;;;;5053826;28;19959;-78
2021/12/23 13:10:58;;;;;;;;;;;;;;;;;;5035913;28;19923;-77
2021/12/23 13:13:31;;;;;;;;;;;;;;;;;;5034726;28;19940;-77
2021/12/23 13:15:58;;;;;;;;;;;;;;;;;;5052996;28;19943;-78
2021/12/23 13:18:24;;;;;;;;;;;;;;;;;;5053479;28;19924;-77
2021/12/23 13:20:51;;;;;;;;;;;;;;;;;;5035849;28;20288;-77
2021/12/23 13:23:19;;;;;;;;;;;;;;;;;;5053524;28;19978;-77
2021/12/23 13:25:56;;;;;;;;;;;;;;;;;;5053928;28;19917;-77
2021/12/23 13:28:26;;;;;;;;;;;;;;;;;;5053743;28;19917;-77
2021/12/23 13:30:55;;;;;;;;;;;;;;;;;;5036077;28;19921;-78
2021/12/23 13:33:20;;;;;;;;;;;;;;;;;;5055544;28;20365;-78
2021/12/23 13:35:46;;;;;;;;;;;;;;;;;;5044354;28;19923;-79
2021/12/23 13:38:47;;;;;;;;;;;;;;;;;;5067059;28;19955;-78
2021/12/23 13:41:24;;;;;;;;;;;;;;;;;;5011821;28;19924;-79
2021/12/23 13:43:54;;;;;;;;;;;;;;;;;;4995471;28;19922;-79
2021/12/23 13:46:23;;;;;;;;;;;;;;;;;;4994993;28;20405;-79
2021/12/23 13:49:03;;;;;;;;;;;;;;;;;;5011602;28;19920;-79
2021/12/23 13:51:33;;;;;;;;;;;;;;;;;;4978067;28;19918;-83
2021/12/23 13:54:03;;;;;;;;;;;;;;;;;;4992138;28;19925;-79
2021/12/23 13:56:30;;;;;;;;;;;;;;;;;;4995967;28;19924;-90
2021/12/23 13:59:04;;;;;;;;;;;;;;;;;;4992242;28;19954;-81
2021/12/23 14:01:32;;;;;;;;;;;;;;;;;;5004667;28;19922;-80
2021/12/23 14:03:57;;;;;;;;;;;;;;;;;;4982889;28;19918;-80
2021/12/23 14:06:23;;;;;;;;;;;;;;;;;;4998510;28;19922;-80
2021/12/23 14:08:49;;;;;;;;;;;;;;;;;;5018077;28;20266;-80
2021/12/23 14:11:14;;;;;;;;;;;;;;;;;;5003116;28;19941;-79
2021/12/23 14:13:39;;;;;;;;;;;;;;;;;;5006209;28;19925;-79
2021/12/23 14:16:05;;;;;;;;;;;;;;;;;;5056739;28;19923;-83
2021/12/23 14:24:02;;;;;;;;;;;;;;;;;;5057056;28;20399;-81
2021/12/23 14:26:31;;;;;;;;;;;;;;;;;;5038990;28;19917;-80
2021/12/23 14:29:07;;;;;;;;;;;;;;;;;;5038876;28;20007;-85
2021/12/23 14:31:34;;;;;;;;;;;;;;;;;;5057018;28;20011;-79
2021/12/23 14:34:01;;;;;;;;;;;;;;;;;;5056849;28;20006;-79
2021/12/23 14:36:29;;;;;;;;;;;;;;;;;;5056649;28;20266;-78
2021/12/23 14:39:05;;;;;;;;;;;;;;;;;;5056634;28;20003;-80
2021/12/23 14:41:41;;;;;;;;;;;;;;;;;;5064623;28;19916;-81
2021/12/23 14:44:21;;;;;;;;;;;;;;;;;;5076621;28;19931;-81
2021/12/23 14:46:55;;;;;;;;;;;;;;;;;;5077191;28;19955;-90
2021/12/23 14:52:17;;;;;;;;;;;;;;;;;;5076450;28;19917;-78
2021/12/23 14:54:50;;;;;;;;;;;;;;;;;;5058360;28;19920;-79
2021/12/23 14:57:18;;;;;;;;;;;;;;;;;;5076772;28;19924;-82
2021/12/23 14:59:45;;;;;;;;;;;;;;;;;;5058386;28;19916;-80
2021/12/23 15:02:11;;;;;;;;;;;;;;;;;;5076441;28;20640;-81
2021/12/23 15:04:48;;;;;;;;;;;;;;;;;;5058158;28;19963;-79
2021/12/23 15:07:14;;;;;;;;;;;;;;;;;;5076094;28;20429;-79
2021/12/23 15:09:40;;;;;;;;;;;;;;;;;;5076191;28;20000;-80
2021/12/23 15:12:16;;;;;;;;;;;;;;;;;;5076032;28;19939;-77
2021/12/23 15:14:44;;;;;;;;;;;;;;;;;;5075917;28;20049;-76
2021/12/23 15:17:15;;;;;;;;;;;;;;;;;;5075921;28;19912;-78
2021/12/23 15:19:43;;;;;;;;;;;;;;;;;;5075925;28;19923;-78
2021/12/23 15:22:16;;;;;;;;;;;;;;;;;;5075913;28;19919;-77
2021/12/23 15:24:45;;;;;;;;;;;;;;;;;;5057760;28;19966;-85
2021/12/23 15:27:16;;;;;;;;;;;;;;;;;;5075779;28;19913;-83
2021/12/23 15:29:44;;;;;;;;;;;;;;;;;;5075918;28;19921;-82
2021/12/23 15:32:14;;;;;;;;;;;;;;;;;;5075673;28;19923;-82
2021/12/23 15:34:46;;;;;;;;;;;;;;;;;;5076023;28;19978;-79
2021/12/23 15:37:12;;;;;;;;;;;;;;;;;;5075538;28;19920;-78
2021/12/23 15:39:38;;;;;;;;;;;;;;;;;;5075691;28;19923;-78
2021/12/23 15:42:04;;;;;;;;;;;;;;;;;;5063032;28;19917;-79
2021/12/23 15:44:31;;;;;;;;;;;;;;;;;;5055408;28;20320;-92
2021/12/23 15:46:57;;;;;;;;;;;;;;;;;;5055403;28;19957;-78
2021/12/23 15:49:24;;;;;;;;;;;;;;;;;;5055539;28;20057;-77
2021/12/23 15:51:49;;;;;;;;;;;;;;;;;;5054912;28;19917;-78
2021/12/23 15:54:15;;;;;;;;;;;;;;;;;;5055220;28;19978;-80
2021/12/23 15:56:40;;;;;;;;;;;;;;;;;;5055118;28;20399;-81
2021/12/23 15:59:07;;;;;;;;;;;;;;;;;;5055192;28;19920;-83
2021/12/23 16:01:33;;;;;;;;;;;;;;;;;;5055177;28;19913;-82
2021/12/23 16:03:58;;;;;;;;;;;;;;;;;;5055123;28;19962;-80
2021/12/23 16:09:10;;;;;;;;;;;;;;;;;;5055034;28;20335;-87
2021/12/23 16:11:36;;;;;;;;;;;;;;;;;;5054874;28;19917;-80
2021/12/23 16:14:01;;;;;;;;;;;;;;;;;;5036815;28;19967;-81
2021/12/23 16:16:27;;;;;;;;;;;;;;;;;;5036867;28;19956;-84
2021/12/23 16:18:52;;;;;;;;;;;;;;;;;;5054764;28;19917;-81
2021/12/23 16:21:17;;;;;;;;;;;;;;;;;;5037781;28;19943;-82
2021/12/23 16:23:43;;;;;;;;;;;;;;;;;;5037922;28;19917;-78
2021/12/23 16:26:09;;;;;;;;;;;;;;;;;;5056524;28;19924;-78
2021/12/23 16:28:36;;;;;;;;;;;;;;;;;;5038215;28;20384;-81
2021/12/23 16:31:03;;;;;;;;;;;;;;;;;;5037747;28;19971;-80
2021/12/23 16:33:28;;;;;;;;;;;;;;;;;;5055861;28;19923;-81
2021/12/23 16:35:53;;;;;;;;;;;;;;;;;;5054377;28;20332;-83
2021/12/23 16:38:20;;;;;;;;;;;;;;;;;;5053037;28;19951;-80
2021/12/23 16:40:49;;;;;;;;;;;;;;;;;;5055756;28;19921;-82
2021/12/23 16:43:15;;;;;;;;;;;;;;;;;;5074376;28;19920;-80
2021/12/23 16:45:41;;;;;;;;;;;;;;;;;;5076209;28;19917;-78
2021/12/23 16:48:11;;;;;;;;;;;;;;;;;;5074195;28;19923;-80
2021/12/23 16:50:36;;;;;;;;;;;;;;;;;;5056153;28;19916;-77
2021/12/23 16:53:02;;;;;;;;;;;;;;;;;;5056044;28;19977;-81
2021/12/23 16:58:18;;;;;;;;;;;;;;;;;;5074164;28;19970;-80
2021/12/23 17:00:45;;;;;;;;;;;;;;;;;;5073944;28;20289;-80
2021/12/23 17:03:12;;;;;;;;;;;;;;;;;;5074931;28;20274;-81
2021/12/23 17:05:38;;;;;;;;;;;;;;;;;;5039715;28;20372;-80
2021/12/23 17:08:04;;;;;;;;;;;;;;;;;;5073885;28;19916;-85
2021/12/23 17:10:30;;;;;;;;;;;;;;;;;;5073780;28;20357;-80
2021/12/23 17:12:57;;;;;;;;;;;;;;;;;;5073703;28;20019;-77
2021/12/23 17:15:23;;;;;;;;;;;;;;;;;;5073841;28;19990;-80
2021/12/23 17:17:50;;;;;;;;;;;;;;;;;;5073822;28;19922;-80
2021/12/23 17:21:47;;;;;;;;;;;;;;;;;;5055842;28;20276;-76
2021/12/23 17:23:16;;;;;;;;;;;;;;;;;;5073266;28;19916;-84
2021/12/23 17:25:42;;;;;;;;;;;;;;;;;;5073634;28;19920;-83
2021/12/23 17:28:09;;;;;;;;;;;;;;;;;;5073410;28;19961;-80
2021/12/23 17:30:35;;;;;;;;;;;;;;;;;;5073597;28;19960;-85
2021/12/23 17:33:01;;;;;;;;;;;;;;;;;;5072605;28;19924;-84
2021/12/23 17:35:30;;;;;;;;;;;;;;;;;;5073616;28;19963;-85
2021/12/23 17:37:57;;;;;;;;;;;;;;;;;;5073517;28;19927;-86
2021/12/23 17:40:23;;;;;;;;;;;;;;;;;;5073636;28;19942;-88
2021/12/23 17:42:49;;;;;;;;;;;;;;;;;;5054518;28;19916;-79
2021/12/23 17:45:15;;;;;;;;;;;;;;;;;;5053736;28;19939;-80
2021/12/23 17:47:40;;;;;;;;;;;;;;;;;;5053493;28;19917;-78
2021/12/23 17:50:06;;;;;;;;;;;;;;;;;;5053474;28;19940;-78
2021/12/23 17:52:31;;;;;;;;;;;;;;;;;;5061379;28;19928;-78
2021/12/23 17:54:57;;;;;;;;;;;;;;;;;;5056769;28;19921;-82
2021/12/23 17:57:22;;;;;;;;;;;;;;;;;;5069203;28;20390;-78
2021/12/23 17:59:48;;;;;;;;;;;;;;;;;;5055510;28;19920;-78
2021/12/23 18:02:14;;;;;;;;;;;;;;;;;;5073413;28;19928;-80
2021/12/23 18:04:39;;;;;;;;;;;;;;;;;;5072189;28;19913;-85
2021/12/23 18:07:05;;;;;;;;;;;;;;;;;;5073016;28;19921;-84
2021/12/23 18:09:30;;;;;;;;;;;;;;;;;;5073395;28;20011;-83
2021/12/23 18:11:56;;;;;;;;;;;;;;;;;;5073201;28;19916;-78
2021/12/23 18:14:21;;;;;;;;;;;;;;;;;;5073336;28;19935;-80
2021/12/23 18:16:47;;;;;;;;;;;;;;;;;;5073226;28;20306;-80